| time (UTC) | temp C | wind direction | speed KPH | gust KPH | rain 1hr cm | rain 24hr cm | rain mn cm | humidity % | barometer mb |
| 20260904180016 | 21 | 202 | 4.8 | 14.5 | 0.13 | 0.84 | 0.71 | 94 | 1012.4 |
| 20260904175516 | 21 | 200 | 6.4 | 16.1 | 0.15 | 0.84 | 0.71 | 94 | 1012.2 |
| 20260904175036 | 21 | 143 | 9.7 | 16.1 | 0.13 | 0.81 | 0.69 | 94 | 1012.0 |
| 20260904174517 | 20 | 163 | 4.8 | 11.3 | 0.13 | 0.81 | 0.69 | 94 | 1012.4 |
| 20260904174016 | 20 | 72 | 3.2 | 9.7 | 0.13 | 0.79 | 0.66 | 94 | 1013.0 |
| 20260904173516 | 20 | 31 | 4.8 | 14.5 | 0.13 | 0.79 | 0.66 | 95 | 1013.3 |
| 20260904173016 | 20 | 242 | 4.8 | 14.5 | 0.13 | 0.76 | 0.64 | 95 | 1013.4 |
| 20260904172517 | 20 | 225 | 4.8 | 14.5 | 0.13 | 0.76 | 0.64 | 95 | 1012.9 |
| 20260904172016 | 20 | 262 | 3.2 | 14.5 | 0.13 | 0.74 | 0.61 | 95 | 1012.8 |
| 20260904171516 | 20 | 238 | 4.8 | 14.5 | 0.13 | 0.74 | 0.61 | 95 | 1012.6 |
| 20260904171015 | 19 | 158 | 4.8 | 16.1 | 0.13 | 0.74 | 0.61 | 94 | 1011.8 |
| 20260904170516 | 19 | 232 | 6.4 | 20.9 | 0.13 | 0.71 | 0.58 | 95 | 1011.8 |
| 20260904170015 | 19 | 194 | 9.7 | 40.2 | 0.13 | 0.71 | 0.58 | 95 | 1011.3 |
| 20260904165537 | 19 | 173 | 16.1 | 40.2 | 0.10 | 0.69 | 0.56 | 95 | 1010.1 |
| 20260904165016 | 19 | 167 | 19.3 | 30.6 | 0.13 | 0.69 | 0.56 | 95 | 1010.3 |
| 20260904164515 | 19 | 164 | 16.1 | 29.0 | 0.13 | 0.69 | 0.56 | 95 | 1010.9 |
| 20260904164016 | 19 | 165 | 16.1 | 27.4 | 0.10 | 0.66 | 0.53 | 95 | 1011.5 |
| 20260904163517 | 19 | 163 | 17.7 | 27.4 | 0.13 | 0.66 | 0.53 | 95 | 1011.8 |
| 20260904163016 | 20 | 165 | 12.9 | 22.5 | 0.10 | 0.64 | 0.51 | 95 | 1012.6 |
| 20260904162515 | 20 | 191 | 9.7 | 17.7 | 0.10 | 0.64 | 0.51 | 95 | 1013.5 |
| 20260904162036 | 20 | 197 | 8.0 | 19.3 | 0.10 | 0.61 | 0.48 | 96 | 1013.8 |
| 20260904161516 | 20 | 234 | 12.9 | 29.0 | 0.10 | 0.61 | 0.48 | 96 | 1014.3 |
| 20260904161017 | 20 | 243 | 17.7 | 40.2 | 0.13 | 0.61 | 0.48 | 96 | 1014.9 |
| 20260904160517 | 20 | 249 | 22.5 | 40.2 | 0.10 | 0.58 | 0.46 | 96 | 1015.0 |
| 20260904160015 | 20 | 266 | 17.7 | 33.8 | 0.10 | 0.58 | 0.46 | 96 | 1014.9 |
| 20260904155516 | 20 | 234 | 8.0 | 16.1 | 0.13 | 0.58 | 0.46 | 96 | 1014.0 |
| 20260904155036 | 20 | 192 | 4.8 | 14.5 | 0.10 | 0.56 | 0.43 | 96 | 1013.3 |
| 20260904154515 | 20 | 158 | 8.0 | 14.5 | 0.10 | 0.56 | 0.43 | 96 | 1013.2 |
| 20260904154036 | 20 | 134 | 4.8 | 14.5 | 0.13 | 0.56 | 0.43 | 96 | 1013.5 |
| 20260904153515 | 20 | 146 | 6.4 | 22.5 | 0.10 | 0.53 | 0.41 | 96 | 1013.7 |
| 20260904153016 | 20 | 168 | 8.0 | 22.5 | 0.10 | 0.53 | 0.41 | 96 | 1013.8 |
| 20260904152515 | 20 | 169 | 9.7 | 25.7 | 0.10 | 0.53 | 0.41 | 96 | 1013.7 |
| 20260904152016 | 20 | 170 | 11.3 | 25.7 | 0.10 | 0.51 | 0.38 | 96 | 1013.9 |
| 20260904151515 | 20 | 157 | 9.7 | 20.9 | 0.10 | 0.51 | 0.38 | 96 | 1013.9 |
| 20260904151038 | 20 | 130 | 11.3 | 16.1 | 0.08 | 0.48 | 0.36 | 96 | 1014.1 |
| 20260904150515 | 20 | 126 | 9.7 | 14.5 | 0.10 | 0.48 | 0.36 | 96 | 1014.3 |
| 20260904150037 | 20 | 99 | 6.4 | 9.7 | 0.10 | 0.48 | 0.36 | 96 | 1014.7 |
| 20260904145515 | 20 | 106 | 3.2 | 6.4 | 0.08 | 0.46 | 0.33 | 96 | 1014.9 |
| 20260904145017 | 20 | 93 | 3.2 | 11.3 | 0.10 | 0.46 | 0.33 | 96 | 1014.9 |
| 20260904144515 | 20 | 99 | 4.8 | 14.5 | 0.10 | 0.46 | 0.33 | 96 | 1014.7 |
| 20260904144015 | 20 | 90 | 8.0 | 14.5 | 0.08 | 0.43 | 0.30 | 96 | 1014.6 |
| 20260904143515 | 20 | 73 | 3.2 | 8.0 | 0.10 | 0.43 | 0.30 | 96 | 1014.8 |
| 20260904143015 | 20 | 62 | 4.8 | 12.9 | 0.10 | 0.43 | 0.30 | 96 | 1015.0 |
| 20260904142515 | 20 | 63 | 6.4 | 12.9 | 0.10 | 0.43 | 0.30 | 96 | 1014.8 |
| 20260904142015 | 20 | 79 | 6.4 | 12.9 | 0.08 | 0.41 | 0.28 | 96 | 1014.4 |
| 20260904141515 | 20 | 95 | 8.0 | 11.3 | 0.10 | 0.41 | 0.28 | 96 | 1014.4 |
| 20260904141017 | 20 | 100 | 3.2 | 6.4 | 0.10 | 0.41 | 0.28 | 96 | 1014.9 |
| 20260904140515 | 20 | 138 | 3.2 | 9.7 | 0.08 | 0.38 | 0.25 | 96 | 1015.0 |
| 20260904140015 | 20 | 115 | 3.2 | 9.7 | 0.10 | 0.38 | 0.25 | 96 | 1015.1 |
| 20260904135515 | 20 | 74 | 3.2 | 8.0 | 0.10 | 0.38 | 0.25 | 96 | 1015.4 |
| 20260904135015 | 20 | 47 | 1.6 | 6.4 | 0.08 | 0.33 | 0.23 | 96 | 1015.3 |
| 20260904134517 | 20 | 26 | 1.6 | 8.0 | 0.10 | 0.33 | 0.23 | 96 | 1015.3 |
| 20260904134016 | 20 | 69 | 3.2 | 8.0 | 0.10 | 0.33 | 0.23 | 96 | 1015.6 |
| 20260904133515 | 20 | 40 | 3.2 | 11.3 | 0.10 | 0.30 | 0.20 | 96 | 1015.1 |
| 20260904133015 | 20 | 343 | 6.4 | 11.3 | 0.10 | 0.30 | 0.20 | 96 | 1015.6 |
| 20260904132515 | 20 | 351 | 3.2 | 9.7 | 0.10 | 0.30 | 0.20 | 96 | 1015.2 |
| 20260904132015 | 20 | 17 | 3.2 | 8.0 | 0.13 | 0.30 | 0.20 | 96 | 1014.8 |
| 20260904131515 | 20 | 4 | 3.2 | 8.0 | 0.10 | 0.28 | 0.18 | 96 | 1014.9 |
| 20260904131015 | 20 | 41 | 1.6 | 6.4 | 0.10 | 0.28 | 0.18 | 96 | 1014.7 |
| 20260904130517 | 20 | 82 | 3.2 | 11.3 | 0.13 | 0.28 | 0.18 | 96 | 1014.3 |
| 20260904130015 | 20 | 80 | 4.8 | 11.3 | 0.10 | 0.25 | 0.15 | 96 | 1014.2 |
| 20260904125537 | 20 | 67 | 4.8 | 8.0 | 0.10 | 0.25 | 0.15 | 96 | 1014.0 |
| 20260904125016 | 20 | 85 | 3.2 | 6.4 | 0.13 | 0.25 | 0.15 | 96 | 1013.6 |
| 20260904124516 | 20 | 111 | 4.8 | 6.4 | 0.10 | 0.25 | 0.13 | 96 | 1013.6 |
| 20260904124015 | 20 | 124 | 1.6 | 6.4 | 0.10 | 0.25 | 0.13 | 96 | 1013.5 |
| 20260904123536 | 20 | 111 | 3.2 | 9.7 | 0.10 | 0.23 | 0.10 | 96 | 1013.4 |
| 20260904123015 | 20 | 111 | 4.8 | 9.7 | 0.10 | 0.23 | 0.10 | 96 | 1013.4 |
| 20260904122515 | 20 | 95 | 3.2 | 8.0 | 0.10 | 0.23 | 0.10 | 95 | 1013.5 |
| 20260904122015 | 20 | 83 | 4.8 | 9.7 | 0.08 | 0.20 | 0.08 | 95 | 1013.4 |
| 20260904121515 | 20 | 82 | 4.8 | 11.3 | 0.08 | 0.20 | 0.08 | 95 | 1013.3 |
| 20260904121036 | 20 | 88 | 6.4 | 12.9 | 0.08 | 0.20 | 0.08 | 95 | 1013.0 |
| 20260904120515 | 20 | 104 | 9.7 | 12.9 | 0.05 | 0.18 | 0.05 | 95 | 1012.9 |
| 20260904120015 | 20 | 102 | 6.4 | 14.5 | 0.05 | 0.18 | 0.05 | 95 | 1013.1 |
| 20260904115516 | 20 | 51 | 6.4 | 16.1 | 0.05 | 0.18 | 0.05 | 95 | 1013.2 |
| 20260904115016 | 20 | 31 | 9.7 | 20.9 | 0.03 | 0.15 | 0.03 | 95 | 1013.1 |
| 20260904114515 | 20 | 53 | 11.3 | 20.9 | 0.03 | 0.15 | 0.03 | 95 | 1013.0 |
| 20260904114055 | 20 | 4 | 11.3 | 33.8 | 0.03 | 0.15 | 0.03 | 95 | 1014.2 |
| 20260904113557 | 20 | 339 | 20.9 | 35.4 | 0.00 | 0.13 | 0.00 | 95 | 1014.2 |
| 20260904113016 | 20 | 345 | 24.1 | 35.4 | 0.00 | 0.13 | 0.00 | 95 | 1014.3 |
| 20260904112515 | 20 | 357 | 6.4 | 20.9 | 0.00 | 0.13 | 0.00 | 95 | 1013.3 |
| 20260904112015 | 20 | 133 | 0.0 | 4.8 | 0.00 | 0.13 | 0.00 | 95 | 1012.7 |
| 20260904111515 | 20 | 112 | 1.6 | 4.8 | 0.00 | 0.13 | 0.00 | 95 | 1012.4 |
| 20260904111015 | 20 | 76 | 1.6 | 4.8 | 0.00 | 0.13 | 0.00 | 95 | 1012.6 |
| 20260904110515 | 20 | 79 | 1.6 | 6.4 | 0.00 | 0.13 | 0.00 | 95 | 1012.6 |
| 20260904110018 | 20 | 92 | 1.6 | 6.4 | 0.00 | 0.13 | 0.00 | 95 | 1012.5 |
| 20260904105517 | 20 | 117 | 3.2 | 6.4 | 0.00 | 0.13 | 0.00 | 96 | 1012.3 |
| 20260904105037 | 20 | 119 | 1.6 | 4.8 | 0.00 | 0.13 | 0.00 | 96 | 1012.3 |
| 20260904104517 | 20 | 86 | 3.2 | 4.8 | 0.00 | 0.13 | 0.00 | 96 | 1012.6 |
| 20260904104017 | 20 | 72 | 1.6 | 4.8 | 0.00 | 0.13 | 0.00 | 96 | 1012.5 |
| 20260904103517 | 20 | 0.0 | 4.8 | 0.00 | 0.13 | 0.00 | 95 | 1012.4 | |
| 20260904103017 | 20 | 69 | 1.6 | 6.4 | 0.00 | 0.13 | 0.00 | 95 | 1012.2 |
| 20260904102517 | 20 | 72 | 3.2 | 6.4 | 0.00 | 0.13 | 0.00 | 96 | 1012.1 |
| 20260904102017 | 20 | 94 | 1.6 | 4.8 | 0.00 | 0.13 | 0.00 | 96 | 1011.9 |
| 20260904101517 | 20 | 108 | 3.2 | 6.4 | 0.00 | 0.13 | 0.00 | 96 | 1011.7 |
| 20260904101037 | 20 | 109 | 1.6 | 16.1 | 0.00 | 0.13 | 0.00 | 96 | 1011.6 |
| 20260904100518 | 20 | 88 | 9.7 | 16.1 | 0.00 | 0.13 | 0.00 | 96 | 1011.7 |
| 20260904100017 | 20 | 96 | 6.4 | 12.9 | 0.00 | 0.13 | 0.00 | 96 | 1011.7 |
| 20260904095517 | 20 | 91 | 6.4 | 11.3 | 0.00 | 0.13 | 0.00 | 96 | 1011.6 |
| 20260904095017 | 20 | 83 | 4.8 | 9.7 | 0.00 | 0.13 | 0.00 | 96 | 1011.6 |
| 20260904094517 | 20 | 72 | 3.2 | 8.0 | 0.00 | 0.13 | 0.00 | 96 | 1011.6 |
| 20260904094037 | 20 | 44 | 3.2 | 8.0 | 0.00 | 0.13 | 0.00 | 96 | 1011.7 |
| 20260904093517 | 20 | 35 | 3.2 | 8.0 | 0.00 | 0.13 | 0.00 | 96 | 1011.7 |
| 20260904093017 | 20 | 44 | 1.6 | 6.4 | 0.00 | 0.13 | 0.00 | 96 | 1011.5 |
| 20260904092517 | 20 | 36 | 1.6 | 4.8 | 0.00 | 0.13 | 0.00 | 96 | 1011.3 |
| 20260904092017 | 19 | 47 | 1.6 | 4.8 | 0.00 | 0.13 | 0.00 | 96 | 1011.2 |
| 20260904091517 | 19 | 0.0 | 1.6 | 0.00 | 0.13 | 0.00 | 96 | 1011.1 | |
| 20260904091038 | 19 | 123 | 0.0 | 3.2 | 0.00 | 0.13 | 0.00 | 96 | 1010.9 |
| 20260904090517 | 20 | 121 | 0.0 | 3.2 | 0.00 | 0.13 | 0.00 | 96 | 1010.8 |
| 20260904090017 | 20 | 120 | 0.0 | 3.2 | 0.00 | 0.13 | 0.00 | 96 | 1010.9 |
| 20260904085518 | 20 | 121 | 0.0 | 3.2 | 0.00 | 0.13 | 0.00 | 96 | 1011.2 |
| 20260904085018 | 20 | 121 | 0.0 | 3.2 | 0.00 | 0.13 | 0.00 | 96 | 1011.2 |
| 20260904084517 | 20 | 119 | 0.0 | 3.2 | 0.00 | 0.13 | 0.00 | 95 | 1011.5 |
| 20260904084017 | 20 | 119 | 1.6 | 3.2 | 0.00 | 0.13 | 0.00 | 95 | 1011.5 |
| 20260904083517 | 20 | 0.0 | 0.0 | 0.00 | 0.13 | 0.00 | 96 | 1011.5 | |
| 20260904083017 | 20 | 0.0 | 0.0 | 0.00 | 0.13 | 0.00 | 96 | 1011.6 | |
| 20260904082517 | 20 | 0.0 | 0.0 | 0.00 | 0.13 | 0.00 | 96 | 1011.7 | |
| 20260904082016 | 20 | 0.0 | 0.0 | 0.00 | 0.13 | 0.00 | 95 | 1011.6 | |
| 20260904081517 | 20 | 0.0 | 0.0 | 0.00 | 0.13 | 0.00 | 96 | 1011.6 | |
| 20260904081017 | 20 | 0.0 | 0.0 | 0.00 | 0.13 | 0.00 | 96 | 1011.5 | |
| 20260904080518 | 20 | 0.0 | 0.0 | 0.00 | 0.13 | 0.00 | 96 | 1011.5 | |
| 20260904080016 | 20 | 0.0 | 1.6 | 0.00 | 0.13 | 0.00 | 96 | 1011.6 | |
| 20260904075516 | 20 | 78 | 0.0 | 1.6 | 0.00 | 0.13 | 0.00 | 96 | 1011.5 |
| 20260904075037 | 20 | 78 | 0.0 | 1.6 | 0.00 | 0.13 | 0.00 | 95 | 1011.6 |
| 20260904074516 | 20 | 78 | 0.0 | 1.6 | 0.00 | 0.13 | 0.00 | 95 | 1011.8 |
| 20260904074037 | 20 | 78 | 0.0 | 1.6 | 0.00 | 0.13 | 0.00 | 96 | 1012.0 |
| 20260904073537 | 20 | 78 | 0.0 | 1.6 | 0.00 | 0.13 | 0.00 | 95 | 1012.0 |
| 20260904073018 | 19 | 79 | 0.0 | 1.6 | 0.00 | 0.13 | 0.00 | 95 | 1012.0 |
| 20260904072518 | 19 | 81 | 0.0 | 3.2 | 0.00 | 0.13 | 0.00 | 95 | 1011.9 |
| 20260904072016 | 19 | 93 | 0.0 | 3.2 | 0.00 | 0.13 | 0.00 | 96 | 1011.7 |
| 20260904071516 | 19 | 108 | 0.0 | 3.2 | 0.00 | 0.13 | 0.00 | 96 | 1011.6 |
| 20260904071017 | 19 | 125 | 0.0 | 4.8 | 0.00 | 0.13 | 0.00 | 95 | 1011.7 |
| 20260904070517 | 19 | 132 | 1.6 | 6.4 | 0.00 | 0.13 | 0.00 | 95 | 1011.5 |
| 20260904070057 | 19 | 126 | 3.2 | 6.4 | 0.00 | 0.13 | 0.00 | 95 | 1011.6 |
| 20260904065517 | 19 | 121 | 3.2 | 6.4 | 0.00 | 0.13 | 0.00 | 95 | 1011.6 |
| 20260904065018 | 19 | 125 | 3.2 | 6.4 | 0.00 | 0.13 | 0.00 | 95 | 1011.7 |
| 20260904064516 | 19 | 120 | 1.6 | 4.8 | 0.00 | 0.13 | 0.00 | 95 | 1011.8 |
| 20260904064016 | 19 | 117 | 1.6 | 3.2 | 0.00 | 0.13 | 0.00 | 95 | 1012.0 |
| 20260904063538 | 20 | 114 | 1.6 | 4.8 | 0.00 | 0.13 | 0.00 | 95 | 1012.2 |
| 20260904063017 | 20 | 115 | 1.6 | 4.8 | 0.00 | 0.13 | 0.00 | 95 | 1012.3 |
| 20260904062518 | 20 | 108 | 1.6 | 4.8 | 0.00 | 0.13 | 0.00 | 95 | 1012.5 |
| 20260904062016 | 20 | 72 | 0.0 | 3.2 | 0.00 | 0.13 | 0.00 | 95 | 1012.7 |
| 20260904061517 | 20 | 59 | 0.0 | 3.2 | 0.00 | 0.13 | 0.00 | 95 | 1012.9 |
| 20260904061016 | 19 | 76 | 0.0 | 3.2 | 0.00 | 0.13 | 0.00 | 95 | 1013.0 |
| 20260904060516 | 19 | 103 | 0.0 | 3.2 | 0.00 | 0.13 | 0.00 | 95 | 1013.0 |
| 20260904060016 | 19 | 122 | 0.0 | 3.2 | 0.00 | 0.13 | 0.00 | 95 | 1013.0 |
| 20260904055517 | 19 | 121 | 1.6 | 3.2 | 0.00 | 0.13 | 0.00 | 95 | 1013.0 |
| 20260904055016 | 19 | 118 | 0.0 | 3.2 | 0.00 | 0.13 | 0.00 | 95 | 1012.9 |
| 20260904054537 | 20 | 124 | 0.0 | 3.2 | 0.00 | 0.13 | 0.00 | 95 | 1013.0 |
| 20260904054016 | 20 | 124 | 0.0 | 3.2 | 0.00 | 0.13 | 0.00 | 95 | 1013.2 |
| 20260904053516 | 20 | 117 | 1.6 | 3.2 | 0.00 | 0.13 | 0.00 | 95 | 1013.2 |
| 20260904053036 | 20 | 75 | 0.0 | 3.2 | 0.00 | 0.13 | 0.00 | 95 | 1013.1 |
| 20260904052516 | 20 | 74 | 0.0 | 3.2 | 0.00 | 0.13 | 0.00 | 95 | 1013.3 |
| 20260904052018 | 19 | 75 | 0.0 | 3.2 | 0.00 | 0.13 | 0.00 | 95 | 1013.2 |
| 20260904051518 | 19 | 105 | 1.6 | 4.8 | 0.00 | 0.13 | 0.00 | 95 | 1013.1 |
| 20260904051016 | 20 | 137 | 3.2 | 4.8 | 0.00 | 0.13 | 0.00 | 95 | 1012.9 |
| 20260904050538 | 20 | 141 | 1.6 | 4.8 | 0.00 | 0.13 | 0.00 | 95 | 1012.9 |
| 20260904050036 | 20 | 0.0 | 3.2 | 0.00 | 0.13 | 0.00 | 95 | 1013.1 | |
| 20260904045516 | 20 | 80 | 0.0 | 3.2 | 0.00 | 0.13 | 0.00 | 95 | 1013.1 |
| 20260904045036 | 20 | 99 | 1.6 | 3.2 | 0.00 | 0.13 | 0.00 | 95 | 1013.0 |
| 20260904044516 | 20 | 111 | 1.6 | 3.2 | 0.00 | 0.13 | 0.00 | 95 | 1013.0 |
| 20260904044016 | 20 | 110 | 1.6 | 3.2 | 0.00 | 0.13 | 0.00 | 94 | 1013.0 |
| 20260904043516 | 20 | 111 | 0.0 | 3.2 | 0.00 | 0.13 | 0.00 | 94 | 1013.2 |
| 20260904043016 | 20 | 109 | 1.6 | 3.2 | 0.00 | 0.13 | 0.00 | 94 | 1013.4 |
| 20260904042518 | 20 | 106 | 1.6 | 4.8 | 0.00 | 0.13 | 0.00 | 94 | 1013.4 |
| 20260904042016 | 20 | 125 | 3.2 | 4.8 | 0.00 | 0.13 | 0.00 | 94 | 1013.4 |
| 20260904041516 | 20 | 134 | 3.2 | 4.8 | 0.00 | 0.13 | 0.00 | 94 | 1013.4 |
| 20260904041016 | 20 | 135 | 3.2 | 4.8 | 0.00 | 0.13 | 0.00 | 94 | 1013.5 |
| 20260904040538 | 20 | 122 | 1.6 | 4.8 | 0.00 | 0.13 | 0.00 | 94 | 1013.7 |
| 20260904040058 | 20 | 93 | 0.0 | 3.2 | 0.00 | 0.13 | 0.13 | 94 | 1013.7 |
| 20260904035617 | 20 | 93 | 0.0 | 3.2 | 0.00 | 0.13 | 0.13 | 94 | 1013.7 |
| 20260904035017 | 20 | 94 | 0.0 | 3.2 | 0.00 | 0.13 | 0.13 | 94 | 1013.8 |
| 20260904034516 | 20 | 0.0 | 0.0 | 0.00 | 0.13 | 0.13 | 94 | 1013.8 | |
| 20260904034017 | 20 | 0.0 | 0.0 | 0.00 | 0.13 | 0.13 | 94 | 1013.7 | |
| 20260904033538 | 20 | 0.0 | 1.6 | 0.00 | 0.13 | 0.13 | 94 | 1013.8 | |
| 20260904033016 | 20 | 92 | 0.0 | 3.2 | 0.00 | 0.13 | 0.13 | 94 | 1013.8 |
| 20260904032518 | 20 | 34 | 0.0 | 3.2 | 0.00 | 0.13 | 0.13 | 94 | 1013.7 |
| 20260904032016 | 20 | 67 | 0.0 | 3.2 | 0.00 | 0.13 | 0.13 | 94 | 1013.7 |
| 20260904031516 | 20 | 67 | 1.6 | 3.2 | 0.00 | 0.13 | 0.13 | 94 | 1013.7 |
| 20260904031016 | 20 | 92 | 1.6 | 3.2 | 0.00 | 0.13 | 0.13 | 94 | 1013.6 |
| 20260904030517 | 21 | 0.0 | 0.0 | 0.00 | 0.13 | 0.13 | 94 | 1013.6 | |
| 20260904030016 | 21 | 0.0 | 0.0 | 0.00 | 0.13 | 0.13 | 94 | 1013.5 | |
| 20260904025516 | 21 | 0.0 | 0.0 | 0.00 | 0.13 | 0.13 | 94 | 1013.5 | |
| 20260904025018 | 21 | 0.0 | 0.0 | 0.00 | 0.13 | 0.13 | 94 | 1013.5 | |
| 20260904024516 | 21 | 0.0 | 1.6 | 0.00 | 0.13 | 0.13 | 94 | 1013.6 | |
| 20260904024037 | 21 | 108 | 0.0 | 1.6 | 0.00 | 0.13 | 0.13 | 93 | 1013.5 |
| 20260904023537 | 21 | 96 | 0.0 | 3.2 | 0.00 | 0.13 | 0.13 | 93 | 1013.5 |
| 20260904023038 | 21 | 95 | 1.6 | 3.2 | 0.00 | 0.13 | 0.13 | 93 | 1013.5 |
| 20260904022518 | 21 | 67 | 1.6 | 3.2 | 0.00 | 0.13 | 0.13 | 93 | 1013.5 |
| 20260904022017 | 21 | 76 | 1.6 | 3.2 | 0.00 | 0.13 | 0.13 | 93 | 1013.5 |
| 20260904021518 | 21 | 77 | 0.0 | 1.6 | 0.00 | 0.13 | 0.13 | 93 | 1013.4 |
| 20260904021016 | 21 | 77 | 0.0 | 4.8 | 0.00 | 0.13 | 0.13 | 93 | 1013.4 |
| 20260904020517 | 21 | 76 | 1.6 | 4.8 | 0.00 | 0.13 | 0.13 | 93 | 1013.3 |
| 20260904020016 | 21 | 70 | 1.6 | 4.8 | 0.00 | 0.13 | 0.13 | 93 | 1013.2 |
| 20260904015516 | 21 | 65 | 1.6 | 3.2 | 0.00 | 0.13 | 0.13 | 93 | 1013.2 |
| 20260904015018 | 21 | 100 | 0.0 | 3.2 | 0.00 | 0.13 | 0.13 | 93 | 1013.2 |
| 20260904014537 | 21 | 99 | 1.6 | 6.4 | 0.00 | 0.13 | 0.13 | 93 | 1013.1 |
| 20260904014016 | 21 | 105 | 3.2 | 6.4 | 0.00 | 0.13 | 0.13 | 93 | 1013.1 |
| 20260904013518 | 21 | 92 | 3.2 | 6.4 | 0.00 | 0.13 | 0.13 | 93 | 1012.9 |
| 20260904013016 | 21 | 81 | 1.6 | 4.8 | 0.00 | 0.13 | 0.13 | 93 | 1013.0 |
| 20260904012516 | 21 | 94 | 3.2 | 6.4 | 0.00 | 0.13 | 0.13 | 92 | 1012.9 |
| 20260904012016 | 22 | 93 | 3.2 | 6.4 | 0.00 | 0.13 | 0.13 | 92 | 1012.9 |
| 20260904011517 | 22 | 99 | 3.2 | 4.8 | 0.00 | 0.13 | 0.13 | 92 | 1012.9 |
| 20260904011017 | 22 | 116 | 1.6 | 4.8 | 0.00 | 0.13 | 0.13 | 91 | 1012.8 |
| 20260904010517 | 22 | 119 | 3.2 | 6.4 | 0.00 | 0.13 | 0.13 | 91 | 1012.9 |
| 20260904010017 | 22 | 118 | 3.2 | 6.4 | 0.00 | 0.13 | 0.13 | 91 | 1012.8 |
| 20260904005517 | 22 | 119 | 1.6 | 6.4 | 0.00 | 0.13 | 0.13 | 91 | 1012.7 |
| 20260904005016 | 22 | 0.0 | 0.0 | 0.00 | 0.13 | 0.13 | 91 | 1012.8 | |
| 20260904004516 | 22 | 0.0 | 0.0 | 0.00 | 0.13 | 0.13 | 90 | 1012.9 | |
| 20260904004016 | 22 | 0.0 | 1.6 | 0.00 | 0.13 | 0.13 | 90 | 1012.7 | |
| 20260904003516 | 22 | 118 | 0.0 | 1.6 | 0.00 | 0.13 | 0.13 | 90 | 1012.7 |
| 20260904003016 | 22 | 0.0 | 3.2 | 0.00 | 0.13 | 0.13 | 90 | 1012.6 | |
| 20260904002516 | 22 | 77 | 0.0 | 3.2 | 0.00 | 0.13 | 0.13 | 90 | 1012.6 |
| 20260904002017 | 22 | 91 | 1.6 | 4.8 | 0.00 | 0.13 | 0.13 | 89 | 1012.5 |
| 20260904001516 | 23 | 108 | 3.2 | 6.4 | 0.00 | 0.13 | 0.13 | 89 | 1012.3 |
| 20260904001016 | 23 | 107 | 3.2 | 6.4 | 0.00 | 0.13 | 0.13 | 89 | 1012.2 |
| 20260904000516 | 23 | 126 | 3.2 | 8.0 | 0.00 | 0.13 | 0.13 | 89 | 1012.2 |
| 20260904000016 | 23 | 126 | 4.8 | 8.0 | 0.00 | 0.13 | 0.13 | 89 | 1012.2 |
| 20260903235516 | 23 | 115 | 4.8 | 6.4 | 0.00 | 0.13 | 0.13 | 89 | 1012.3 |
| 20260903235016 | 23 | 118 | 3.2 | 11.3 | 0.00 | 0.13 | 0.13 | 89 | 1012.2 |
| 20260903234517 | 23 | 129 | 3.2 | 11.3 | 0.00 | 0.13 | 0.13 | 89 | 1012.2 |
| 20260903234018 | 23 | 129 | 4.8 | 11.3 | 0.00 | 0.13 | 0.13 | 89 | 1012.1 |
| 20260903233558 | 23 | 111 | 4.8 | 11.3 | 0.00 | 0.13 | 0.13 | 88 | 1011.9 |
| 20260903233016 | 23 | 110 | 6.4 | 11.3 | 0.00 | 0.13 | 0.13 | 88 | 1012.0 |
| 20260903232516 | 23 | 110 | 6.4 | 11.3 | 0.00 | 0.13 | 0.13 | 88 | 1012.1 |
| 20260903232016 | 23 | 114 | 8.0 | 11.3 | 0.00 | 0.13 | 0.13 | 88 | 1012.0 |
| 20260903231516 | 23 | 115 | 4.8 | 9.7 | 0.00 | 0.13 | 0.13 | 88 | 1012.0 |
| 20260903231016 | 23 | 134 | 3.2 | 11.3 | 0.00 | 0.13 | 0.13 | 88 | 1012.0 |
| 20260903230516 | 23 | 130 | 6.4 | 11.3 | 0.00 | 0.13 | 0.13 | 87 | 1012.1 |
| 20260903230017 | 23 | 124 | 4.8 | 12.9 | 0.00 | 0.13 | 0.13 | 86 | 1012.0 |
| 20260903225516 | 24 | 126 | 6.4 | 14.5 | 0.00 | 0.13 | 0.13 | 86 | 1012.0 |
| 20260903225016 | 24 | 121 | 9.7 | 17.7 | 0.00 | 0.13 | 0.13 | 86 | 1011.9 |
| 20260903224517 | 24 | 122 | 11.3 | 17.7 | 0.00 | 0.13 | 0.13 | 85 | 1011.9 |
| 20260903224016 | 24 | 117 | 12.9 | 17.7 | 0.03 | 0.13 | 0.13 | 85 | 1012.0 |
| 20260903223536 | 24 | 113 | 11.3 | 14.5 | 0.03 | 0.13 | 0.13 | 85 | 1012.1 |
| 20260903223016 | 24 | 112 | 6.4 | 12.9 | 0.03 | 0.13 | 0.13 | 86 | 1012.0 |
| 20260903222516 | 24 | 137 | 4.8 | 12.9 | 0.03 | 0.13 | 0.13 | 87 | 1011.9 |
| 20260903222036 | 24 | 140 | 4.8 | 9.7 | 0.03 | 0.13 | 0.13 | 87 | 1012.0 |
| 20260903221536 | 23 | 122 | 4.8 | 9.7 | 0.03 | 0.13 | 0.13 | 88 | 1012.1 |
| 20260903221056 | 23 | 108 | 3.2 | 12.9 | 0.03 | 0.13 | 0.13 | 88 | 1012.1 |
| 20260903220517 | 23 | 100 | 8.0 | 12.9 | 0.03 | 0.13 | 0.13 | 88 | 1012.0 |
| 20260903220036 | 23 | 110 | 6.4 | 12.9 | 0.05 | 0.13 | 0.13 | 88 | 1012.1 |
| 20260903215516 | 23 | 117 | 6.4 | 11.3 | 0.05 | 0.13 | 0.13 | 88 | 1012.0 |
| 20260903215016 | 23 | 124 | 3.2 | 12.9 | 0.05 | 0.13 | 0.13 | 90 | 1012.0 |
| 20260903214516 | 23 | 136 | 6.4 | 12.9 | 0.05 | 0.13 | 0.13 | 90 | 1012.0 |
| 20260903214036 | 23 | 141 | 6.4 | 12.9 | 0.03 | 0.10 | 0.10 | 90 | 1011.8 |
| 20260903213516 | 23 | 142 | 4.8 | 11.3 | 0.03 | 0.10 | 0.10 | 91 | 1011.9 |
| 20260903213017 | 23 | 121 | 4.8 | 11.3 | 0.03 | 0.10 | 0.10 | 91 | 1012.1 |
| 20260903212516 | 23 | 143 | 3.2 | 8.0 | 0.03 | 0.10 | 0.10 | 91 | 1012.3 |
| 20260903212017 | 23 | 158 | 3.2 | 8.0 | 0.03 | 0.10 | 0.10 | 92 | 1012.2 |
| 20260903211536 | 22 | 147 | 0.0 | 6.4 | 0.03 | 0.10 | 0.10 | 92 | 1012.4 |
| 20260903211036 | 22 | 148 | 1.6 | 6.4 | 0.05 | 0.10 | 0.10 | 92 | 1012.2 |
| 20260903210516 | 22 | 137 | 1.6 | 11.3 | 0.05 | 0.10 | 0.10 | 91 | 1012.1 |
| 20260903210036 | 22 | 134 | 6.4 | 12.9 | 0.03 | 0.08 | 0.08 | 92 | 1012.0 |
| 20260903205537 | 22 | 133 | 6.4 | 12.9 | 0.03 | 0.08 | 0.08 | 91 | 1012.0 |
| 20260903205016 | 22 | 152 | 6.4 | 12.9 | 0.03 | 0.08 | 0.08 | 91 | 1012.2 |
| 20260903204517 | 22 | 159 | 6.4 | 14.5 | 0.03 | 0.08 | 0.08 | 90 | 1012.5 |
| 20260903204016 | 22 | 175 | 9.7 | 16.1 | 0.03 | 0.08 | 0.08 | 89 | 1012.9 |
| 20260903203516 | 22 | 168 | 6.4 | 16.1 | 0.03 | 0.08 | 0.08 | 88 | 1012.6 |
| 20260903203017 | 23 | 168 | 1.6 | 6.4 | 0.03 | 0.08 | 0.08 | 87 | 1012.7 |
| 20260903202516 | 23 | 227 | 3.2 | 8.0 | 0.03 | 0.08 | 0.08 | 87 | 1013.0 |
| 20260903202036 | 23 | 271 | 3.2 | 11.3 | 0.05 | 0.08 | 0.08 | 85 | 1013.2 |
| 20260903201536 | 23 | 304 | 4.8 | 11.3 | 0.05 | 0.08 | 0.08 | 85 | 1013.1 |
| 20260903201016 | 23 | 5 | 4.8 | 11.3 | 0.03 | 0.05 | 0.05 | 84 | 1012.8 |
| 20260903200536 | 23 | 10 | 6.4 | 11.3 | 0.03 | 0.05 | 0.05 | 84 | 1012.7 |
| 20260903200017 | 23 | 1 | 4.8 | 14.5 | 0.03 | 0.05 | 0.05 | 84 | 1012.5 |
| 20260903195516 | 23 | 13 | 6.4 | 14.5 | 0.03 | 0.05 | 0.05 | 85 | 1012.3 |
| 20260903195016 | 23 | 5 | 9.7 | 16.1 | 0.03 | 0.05 | 0.05 | 86 | 1012.2 |
| 20260903194516 | 23 | 359 | 9.7 | 17.7 | 0.05 | 0.05 | 0.05 | 87 | 1012.0 |
| 20260903194016 | 23 | 8 | 11.3 | 17.7 | 0.05 | 0.05 | 0.05 | 88 | 1011.9 |
| 20260903193516 | 22 | 18 | 11.3 | 16.1 | 0.05 | 0.05 | 0.05 | 88 | 1011.8 |
| 20260903193036 | 22 | 0 | 6.4 | 11.3 | 0.05 | 0.05 | 0.05 | 89 | 1012.1 |
| 20260903192516 | 22 | 23 | 3.2 | 14.5 | 0.05 | 0.05 | 0.05 | 88 | 1011.9 |
| 20260903192016 | 22 | 47 | 6.4 | 16.1 | 0.03 | 0.03 | 0.03 | 88 | 1011.7 |
| 20260903191516 | 22 | 38 | 8.0 | 16.1 | 0.03 | 0.03 | 0.03 | 88 | 1012.2 |
| 20260903191015 | 22 | 11 | 6.4 | 19.3 | 0.03 | 0.03 | 0.03 | 88 | 1012.7 |
| 20260903190516 | 22 | 11 | 11.3 | 19.3 | 0.03 | 0.03 | 0.03 | 87 | 1013.0 |
| 20260903190016 | 23 | 353 | 8.0 | 14.5 | 0.03 | 0.03 | 0.03 | 88 | 1013.1 |
| 20260903185536 | 23 | 306 | 8.0 | 14.5 | 0.03 | 0.03 | 0.03 | 88 | 1013.9 |
| 20260903185015 | 23 | 303 | 8.0 | 16.1 | 0.03 | 0.03 | 0.03 | 87 | 1014.1 |
| 20260903184516 | 23 | 318 | 8.0 | 16.1 | 0.00 | 0.00 | 0.00 | 87 | 1014.0 |
| 20260903184016 | 23 | 321 | 9.7 | 19.3 | 0.00 | 0.00 | 0.00 | 86 | 1014.0 |
| 20260903183515 | 23 | 329 | 11.3 | 19.3 | 0.00 | 0.00 | 0.00 | 85 | 1014.1 |
| 20260903183017 | 24 | 303 | 9.7 | 19.3 | 0.00 | 0.00 | 0.00 | 83 | 1014.4 |
| 20260903182517 | 24 | 304 | 12.9 | 22.5 | 0.00 | 0.00 | 0.00 | 82 | 1014.5 |
| 20260903182017 | 25 | 298 | 12.9 | 22.5 | 0.00 | 0.00 | 0.00 | 82 | 1014.5 |
| 20260903181536 | 25 | 294 | 11.3 | 20.9 | 0.00 | 0.00 | 0.00 | 82 | 1014.4 |
| 20260903181015 | 26 | 298 | 14.5 | 30.6 | 0.00 | 0.00 | 0.00 | 79 | 1014.0 |
| 20260903180515 | 26 | 301 | 16.1 | 37.0 | 0.00 | 0.00 | 0.00 | 77 | 1014.2 |